Time;durP1;ratioP1;P1;durP2;ratioP2;P2;SDS_P1;SDS_P2;PMS_P1;PMS_P2;Temp;Humidity;BMP_temperature;BMP_pressure;BME280_temperature;BME280_humidity;BME280_pressure;Samples;Min_cycle;Max_cycle;Signal;HPM_P1;HPM_P2
2022/05/13 00:01:10;;;;;;;5.82;2.08;;;21.80;75.80;;;;;;4917499;29;20047;-63
2022/05/13 00:03:36;;;;;;;5.80;2.30;;;21.60;72.60;;;;;;4885220;29;20128;-64
2022/05/13 00:06:02;;;;;;;4.18;1.88;;;21.90;73.00;;;;;;4916676;29;20052;-64
2022/05/13 00:08:28;;;;;;;5.20;2.10;;;21.60;75.40;;;;;;4926481;29;20533;-62
2022/05/13 00:10:54;;;;;;;5.43;1.73;;;22.00;72.60;;;;;;4936725;29;20044;-66
2022/05/13 00:13:20;;;;;;;6.38;2.13;;;21.70;75.60;;;;;;4914895;29;20052;-65
2022/05/13 00:15:46;;;;;;;5.78;2.17;;;21.60;72.10;;;;;;4918220;29;20044;-62
2022/05/13 00:18:12;;;;;;;5.38;1.90;;;21.70;72.60;;;;;;4915584;29;20517;-62
2022/05/13 00:20:38;;;;;;;5.05;1.83;;;21.40;75.40;;;;;;4920211;29;20040;-62
2022/05/13 00:23:04;;;;;;;4.20;1.90;;;21.60;75.30;;;;;;4900702;29;20048;-64
2022/05/13 00:25:34;;;;;;;5.03;1.88;;;21.70;75.40;;;;;;4916040;29;20055;-63
2022/05/13 00:28:00;;;;;;;6.80;2.30;;;21.60;75.30;;;;;;4916252;29;20076;-63
2022/05/13 00:30:30;;;;;;;7.65;1.83;;;21.80;75.40;;;;;;4922105;29;20044;-61
2022/05/13 00:32:56;;;;;;;7.28;2.03;;;21.50;72.60;;;;;;4895483;29;20056;-62
2022/05/13 00:35:22;;;;;;;5.28;2.10;;;21.70;72.50;;;;;;4916315;29;20117;-62
2022/05/13 00:37:48;;;;;;;4.55;1.77;;;21.70;75.80;;;;;;4917112;29;20044;-62
2022/05/13 00:40:14;;;;;;;5.15;1.98;;;21.70;72.60;;;;;;4921421;29;20171;-61
2022/05/13 00:42:40;;;;;;;8.13;2.30;;;21.40;75.80;;;;;;4919469;29;20406;-62
2022/05/13 00:45:06;;;;;;;5.78;1.95;;;21.60;72.40;;;;;;4934786;29;20143;-62
2022/05/13 00:47:32;;;;;;;6.32;2.42;;;21.70;75.50;;;;;;4919018;29;20501;-61
2022/05/13 00:49:59;;;;;;;4.38;2.25;;;21.80;75.70;;;;;;4930829;29;20048;-61
2022/05/13 00:52:26;;;;;;;6.78;2.20;;;21.40;73.00;;;;;;4933786;29;20070;-61
2022/05/13 00:54:51;;;;;;;8.05;2.15;;;21.80;75.50;;;;;;4919952;29;20047;-67
2022/05/13 00:57:18;;;;;;;5.55;2.10;;;21.70;72.30;;;;;;4923103;29;20047;-61
2022/05/13 00:59:44;;;;;;;7.85;1.98;;;;;;;;;;4938249;29;20110;-62
2022/05/13 01:02:10;;;;;;;4.72;1.67;;;21.70;75.60;;;;;;4932133;29;20083;-63
2022/05/13 01:04:37;;;;;;;5.28;1.80;;;21.80;75.60;;;;;;4940086;29;20040;-62
2022/05/13 01:07:06;;;;;;;4.70;1.55;;;21.60;75.70;;;;;;4917188;29;20583;-62
2022/05/13 01:09:34;;;;;;;6.93;2.50;;;21.90;72.60;;;;;;4919957;29;20059;-63
2022/05/13 01:12:03;;;;;;;5.53;1.50;;;21.80;72.80;;;;;;4919724;29;20450;-65
2022/05/13 01:14:34;;;;;;;4.82;1.90;;;21.70;75.30;;;;;;4919237;29;20088;-62
2022/05/13 01:20:19;;;;;;;5.68;1.73;;;21.80;75.80;;;;;;4931668;29;20055;-62
2022/05/13 01:22:50;;;;;;;5.30;1.70;;;21.80;71.30;;;;;;4938671;29;20066;-62
2022/05/13 01:25:19;;;;;;;4.78;1.80;;;21.70;71.20;;;;;;4923046;29;20060;-65
2022/05/13 01:27:45;;;;;;;5.47;1.90;;;21.60;75.50;;;;;;4906808;29;20090;-63
2022/05/13 01:30:13;;;;;;;5.38;1.90;;;21.70;75.40;;;;;;4931641;29;20413;-62
2022/05/13 01:32:39;;;;;;;5.90;1.90;;;21.60;75.50;;;;;;4938036;29;20135;-62
2022/05/13 01:35:05;;;;;;;5.57;2.00;;;21.50;75.30;;;;;;4935579;29;20126;-62
2022/05/13 01:37:32;;;;;;;4.70;1.80;;;21.60;73.10;;;;;;4930529;29;20119;-63
2022/05/13 01:39:58;;;;;;;5.45;2.10;;;;;;;;;;4929642;29;20044;-63
2022/05/13 01:42:24;;;;;;;3.50;1.58;;;21.60;75.40;;;;;;4920726;29;20438;-62
2022/05/13 01:44:50;;;;;;;5.90;1.83;;;21.60;75.60;;;;;;4927944;29;20105;-62
2022/05/13 01:47:16;;;;;;;6.15;2.70;;;21.60;72.30;;;;;;4939361;29;20044;-63
2022/05/13 01:49:41;;;;;;;5.05;1.88;;;21.60;75.40;;;;;;4921277;29;20387;-63
2022/05/13 01:52:07;;;;;;;6.45;1.83;;;21.40;72.30;;;;;;4931503;29;20039;-63
2022/05/13 01:54:33;;;;;;;5.95;1.70;;;21.80;75.60;;;;;;4939235;29;20055;-61
2022/05/13 01:56:59;;;;;;;6.75;1.98;;;21.50;72.30;;;;;;4925185;29;20126;-63
2022/05/13 01:59:24;;;;;;;5.38;1.70;;;21.60;75.30;;;;;;4925715;29;20075;-63
2022/05/13 02:01:50;;;;;;;5.85;2.10;;;21.70;75.30;;;;;;4935178;29;20046;-62
2022/05/13 02:04:16;;;;;;;4.80;1.80;;;21.60;72.40;;;;;;4947360;29;20127;-62
2022/05/13 02:06:41;;;;;;;7.03;1.80;;;21.80;72.50;;;;;;4921602;29;20498;-62
2022/05/13 02:09:07;;;;;;;7.25;2.00;;;21.50;72.50;;;;;;4926636;29;20043;-62
2022/05/13 02:11:33;;;;;;;8.10;1.80;;;21.70;75.60;;;;;;4923386;29;20051;-62
2022/05/13 02:13:59;;;;;;;5.53;1.85;;;21.60;75.50;;;;;;4923582;29;20142;-62
2022/05/13 02:16:24;;;;;;;7.13;2.28;;;21.60;75.30;;;;;;4939953;29;20039;-62
2022/05/13 02:18:50;;;;;;;7.00;1.88;;;21.70;72.60;;;;;;4949176;29;20051;-62
2022/05/13 02:21:17;;;;;;;6.75;2.33;;;21.70;75.60;;;;;;4928205;29;20451;-62
2022/05/13 02:23:43;;;;;;;6.53;2.10;;;21.50;75.60;;;;;;4928592;29;20043;-62
2022/05/13 02:26:10;;;;;;;6.50;2.00;;;21.40;75.40;;;;;;4957701;29;20130;-62
2022/05/13 02:28:36;;;;;;;6.03;1.98;;;21.30;75.30;;;;;;4924753;29;20113;-62
2022/05/13 02:31:01;;;;;;;5.22;1.77;;;21.70;72.40;;;;;;4905406;29;20048;-63
2022/05/13 02:33:28;;;;;;;5.57;1.63;;;21.60;71.60;;;;;;4917218;29;20051;-63
2022/05/13 02:35:53;;;;;;;6.45;2.13;;;21.40;72.40;;;;;;4934322;29;20371;-61
2022/05/13 02:38:19;;;;;;;6.32;2.47;;;21.50;75.40;;;;;;4924297;29;20110;-63
2022/05/13 02:43:29;;;;;;;7.32;2.58;;;21.60;75.70;;;;;;4907506;29;20052;-63
2022/05/13 02:45:56;;;;;;;6.57;1.77;;;21.60;75.70;;;;;;4916252;29;20402;-65
2022/05/13 02:48:22;;;;;;;5.38;1.88;;;21.40;75.50;;;;;;4921492;29;20059;-62
2022/05/13 02:50:48;;;;;;;7.05;1.77;;;21.40;75.60;;;;;;4905170;29;20076;-62
2022/05/13 02:53:13;;;;;;;5.43;1.70;;;21.20;72.50;;;;;;4945027;29;20457;-62
2022/05/13 02:55:39;;;;;;;7.20;1.90;;;21.50;75.70;;;;;;4917194;29;20115;-62
2022/05/13 02:58:05;;;;;;;5.70;1.70;;;21.50;72.60;;;;;;4921080;29;20115;-62
2022/05/13 03:00:32;;;;;;;8.27;2.30;;;21.60;72.10;;;;;;4920238;29;20043;-62
2022/05/13 03:02:57;;;;;;;5.95;2.22;;;21.60;75.80;;;;;;4901654;29;20051;-62
2022/05/13 03:05:23;;;;;;;5.28;1.63;;;;;;;;;;4921815;28;20059;-67
2022/05/13 03:07:50;;;;;;;4.82;1.45;;;21.60;75.70;;;;;;4936715;29;20094;-63
2022/05/13 03:10:17;;;;;;;4.10;1.70;;;21.70;72.90;;;;;;4924254;29;20047;-62
2022/05/13 03:12:43;;;;;;;7.60;2.17;;;21.70;72.70;;;;;;4921577;29;20062;-62
2022/05/13 03:15:10;;;;;;;6.00;2.10;;;;;;;;;;4935571;29;20047;-68
2022/05/13 03:17:36;;;;;;;4.10;1.70;;;21.50;76.30;;;;;;4939747;29;20394;-72
2022/05/13 03:20:06;;;;;;;8.25;1.80;;;21.60;75.80;;;;;;4922689;29;20035;-71
2022/05/13 03:22:32;;;;;;;5.55;1.80;;;21.40;76.10;;;;;;4909588;29;20078;-71
2022/05/13 03:24:59;;;;;;;6.00;1.75;;;21.60;75.80;;;;;;4904968;29;20051;-71
2022/05/13 03:27:26;;;;;;;5.82;1.90;;;21.40;75.90;;;;;;4890715;29;20056;-71
2022/05/13 03:29:52;;;;;;;8.85;2.42;;;21.30;73.00;;;;;;4904251;29;20071;-71
2022/05/13 03:32:17;;;;;;;5.90;2.17;;;21.40;75.80;;;;;;4929113;29;20039;-71
2022/05/13 03:34:43;;;;;;;6.43;1.90;;;21.30;72.90;;;;;;4914631;29;20058;-71
2022/05/13 03:37:10;;;;;;;8.13;2.00;;;;;;;;;;4923620;29;20035;-71
2022/05/13 03:39:36;;;;;;;7.43;2.35;;;;;;;;;;4934770;28;20422;-71
2022/05/13 03:42:03;;;;;;;8.38;2.42;;;;;;;;;;4944971;29;20047;-72
2022/05/13 03:44:29;;;;;;;6.45;2.20;;;;;;;;;;4905189;29;20067;-70
2022/05/13 03:46:55;;;;;;;8.10;2.00;;;21.90;71.30;;;;;;4920845;29;20047;-71
2022/05/13 03:49:20;;;;;;;7.85;2.10;;;21.50;75.90;;;;;;4946191;29;20043;-72
2022/05/13 03:51:46;;;;;;;9.30;2.38;;;21.40;74.30;;;;;;4936559;29;20043;-70
2022/05/13 03:54:12;;;;;;;6.72;2.85;;;21.40;76.20;;;;;;4954754;29;20421;-72
2022/05/13 03:56:38;;;;;;;6.30;2.63;;;21.30;75.90;;;;;;4924791;29;20075;-71
2022/05/13 03:59:04;;;;;;;6.25;2.10;;;;;;;;;;4937851;28;20173;-71
2022/05/13 04:01:30;;;;;;;8.75;2.50;;;;;;;;;;4954306;29;20044;-71
2022/05/13 04:03:56;;;;;;;8.38;2.53;;;;;;;;;;4918894;29;20068;-71
2022/05/13 04:09:07;;;;;;;5.53;2.03;;;21.20;75.90;;;;;;4935264;29;20106;-71
2022/05/13 04:11:38;;;;;;;6.65;1.85;;;21.40;76.10;;;;;;4924921;28;20051;-72
2022/05/13 04:16:54;;;;;;;8.85;2.50;;;21.50;76.20;;;;;;4893930;29;20446;-71
2022/05/13 04:19:20;;;;;;;6.10;2.03;;;21.40;76.20;;;;;;4919675;29;20043;-71
2022/05/13 04:21:49;;;;;;;5.88;2.20;;;21.40;73.00;;;;;;4949396;29;20409;-71
2022/05/13 04:24:17;;;;;;;8.32;2.58;;;21.40;76.20;;;;;;4955607;29;20043;-71
2022/05/13 04:26:43;;;;;;;6.53;2.22;;;21.00;75.90;;;;;;4937225;29;20055;-71
2022/05/13 04:29:08;;;;;;;7.05;2.08;;;21.30;76.10;;;;;;4948427;28;20044;-71
2022/05/13 04:31:37;;;;;;;5.35;2.00;;;21.30;73.20;;;;;;4895382;29;20052;-71
2022/05/13 04:34:03;;;;;;;6.68;2.40;;;21.10;76.10;;;;;;4919531;29;20052;-71
2022/05/13 04:36:29;;;;;;;7.50;1.90;;;21.40;76.30;;;;;;4903655;29;20052;-71
2022/05/13 04:38:56;;;;;;;6.68;2.30;;;21.40;73.50;;;;;;4920558;29;20047;-71
2022/05/13 04:44:06;;;;;;;6.05;2.25;;;;;;;;;;4929093;29;20509;-71
2022/05/13 04:46:32;;;;;;;6.00;1.95;;;21.40;76.50;;;;;;4918790;29;20059;-71
2022/05/13 04:48:58;;;;;;;6.15;2.13;;;21.30;73.50;;;;;;4921145;29;20063;-71
2022/05/13 04:51:25;;;;;;;6.57;2.35;;;21.30;76.50;;;;;;4936049;29;20055;-71
2022/05/13 04:53:51;;;;;;;8.57;2.92;;;21.20;76.30;;;;;;4903166;29;20079;-71
2022/05/13 04:56:17;;;;;;;8.00;2.10;;;21.40;76.40;;;;;;4904337;29;20165;-70
2022/05/13 04:58:44;;;;;;;8.32;2.25;;;;;;;;;;4904095;29;20060;-71
2022/05/13 05:01:13;;;;;;;6.45;2.00;;;;;;;;;;4922801;29;20102;-72
2022/05/13 05:03:43;;;;;;;7.90;2.35;;;;;;;;;;4923836;29;20134;-71
2022/05/13 05:06:09;;;;;;;8.93;2.72;;;;;;;;;;4919416;29;20089;-71
2022/05/13 05:08:36;;;;;;;8.63;2.70;;;21.30;76.50;;;;;;4920433;29;20043;-71
2022/05/13 05:11:05;;;;;;;7.18;2.42;;;21.00;76.30;;;;;;4921384;29;20505;-71
2022/05/13 05:13:33;;;;;;;8.13;2.58;;;21.50;73.40;;;;;;4903437;29;20051;-69
2022/05/13 05:15:59;;;;;;;9.98;2.50;;;;;;;;;;4921240;29;20057;-71
2022/05/13 05:18:26;;;;;;;8.63;2.35;;;;;;;;;;4939614;29;20082;-71
2022/05/13 05:20:52;;;;;;;6.43;2.30;;;;;;;;;;4917950;29;20153;-71
2022/05/13 05:23:21;;;;;;;8.00;2.13;;;21.20;76.60;;;;;;4919149;29;20052;-71
2022/05/13 05:25:47;;;;;;;9.43;2.63;;;21.20;76.70;;;;;;4911985;29;20064;-70
2022/05/13 05:28:13;;;;;;;6.57;2.17;;;21.20;76.50;;;;;;4921994;29;20366;-70
2022/05/13 05:30:39;;;;;;;7.05;1.98;;;21.00;76.40;;;;;;4932188;29;20047;-71
2022/05/13 05:33:06;;;;;;;7.50;2.95;;;;;;;;;;4937157;29;20055;-69
2022/05/13 05:35:33;;;;;;;8.38;2.50;;;;;;;;;;4920884;29;20504;-71
2022/05/13 05:37:59;;;;;;;6.18;2.13;;;;;;;;;;4954692;29;20528;-71
2022/05/13 05:40:25;;;;;;;7.70;2.42;;;;;;;;;;4921982;29;20107;-71
2022/05/13 05:42:51;;;;;;;7.25;2.53;;;21.20;71.70;;;;;;4921669;29;20442;-71
2022/05/13 05:45:17;;;;;;;6.85;2.30;;;21.40;76.60;;;;;;4938420;29;20054;-70
2022/05/13 05:47:43;;;;;;;7.15;2.35;;;;;;;;;;4926457;29;20055;-71
2022/05/13 05:50:11;;;;;;;6.82;2.55;;;21.30;76.50;;;;;;4936039;29;20485;-71
2022/05/13 05:52:37;;;;;;;7.60;2.33;;;21.40;76.80;;;;;;4906521;29;20099;-71
2022/05/13 05:58:00;;;;;;;6.35;2.20;;;21.40;77.00;;;;;;4947513;28;20055;-71
2022/05/13 06:00:27;;;;;;;6.30;2.38;;;21.50;76.60;;;;;;4938841;29;20055;-72
2022/05/13 06:02:53;;;;;;;6.30;2.35;;;;;;;;;;4927664;29;20044;-71
2022/05/13 06:05:19;;;;;;;8.20;2.47;;;21.60;76.90;;;;;;4940701;29;20047;-71
2022/05/13 06:07:46;;;;;;;7.70;2.95;;;21.50;76.50;;;;;;4950771;29;20464;-71
2022/05/13 06:10:13;;;;;;;9.45;2.55;;;;;;;;;;4957799;29;20505;-71
2022/05/13 06:12:40;;;;;;;8.23;2.83;;;21.60;72.70;;;;;;4927919;29;20047;-71
2022/05/13 06:15:07;;;;;;;7.13;2.17;;;21.60;77.10;;;;;;4938813;29;20057;-62
2022/05/13 06:17:32;;;;;;;9.05;2.65;;;21.50;73.20;;;;;;4912767;29;20047;-62
2022/05/13 06:19:58;;;;;;;7.57;2.60;;;21.60;76.40;;;;;;4933728;29;20567;-62
2022/05/13 06:22:24;;;;;;;7.90;3.03;;;21.70;76.60;;;;;;4940612;29;20045;-62
2022/05/13 06:24:49;;;;;;;9.10;2.58;;;21.80;76.40;;;;;;4940482;29;20046;-62
2022/05/13 06:27:15;;;;;;;7.50;2.08;;;21.80;76.50;;;;;;4940473;29;20485;-62
2022/05/13 06:29:41;;;;;;;10.48;2.63;;;21.60;76.30;;;;;;4926605;29;20130;-72
2022/05/13 06:32:08;;;;;;;8.45;2.90;;;21.70;76.40;;;;;;4945515;29;20098;-72
2022/05/13 06:34:34;;;;;;;8.50;2.08;;;21.60;73.30;;;;;;4924367;29;20052;-62
2022/05/13 06:36:59;;;;;;;6.03;2.28;;;21.70;76.40;;;;;;4936958;29;20058;-62
2022/05/13 06:39:25;;;;;;;8.18;2.22;;;21.90;76.40;;;;;;4919969;29;20110;-62
2022/05/13 06:41:51;;;;;;;8.85;2.55;;;21.80;76.40;;;;;;4890093;29;20124;-62
2022/05/13 06:44:18;;;;;;;4.93;2.15;;;21.50;76.20;;;;;;4938140;29;20067;-62
2022/05/13 06:46:44;;;;;;;8.35;1.90;;;21.70;72.90;;;;;;4941858;29;20082;-65
2022/05/13 06:49:11;;;;;;;6.53;1.83;;;21.80;76.40;;;;;;4905412;29;20047;-64
2022/05/13 06:51:37;;;;;;;8.52;2.63;;;;;;;;;;4904855;29;20059;-64
2022/05/13 06:54:06;;;;;;;9.15;2.63;;;21.70;76.40;;;;;;4919468;29;20139;-77
2022/05/13 06:56:32;;;;;;;6.57;2.13;;;21.90;76.40;;;;;;4920302;29;20075;-69
2022/05/13 06:58:58;;;;;;;8.05;2.55;;;21.80;76.40;;;;;;4952996;29;20492;-71
2022/05/13 07:01:24;;;;;;;11.02;2.78;;;21.60;76.20;;;;;;4911661;29;20039;-72
2022/05/13 07:03:50;;;;;;;8.18;2.15;;;21.90;76.80;;;;;;4933166;29;20405;-72
2022/05/13 07:06:16;;;;;;;6.60;2.03;;;21.50;76.40;;;;;;4926045;29;20050;-72
2022/05/13 07:08:42;;;;;;;7.68;2.45;;;21.80;76.70;;;;;;4925657;29;20055;-72
2022/05/13 07:11:08;;;;;;;6.80;2.30;;;;;;;;;;4939958;29;20039;-71
2022/05/13 07:13:34;;;;;;;6.95;2.42;;;;;;;;;;4935253;29;20047;-71
2022/05/13 07:16:00;;;;;;;7.80;2.45;;;;;;;;;;4936103;29;20093;-72
2022/05/13 07:18:27;;;;;;;9.30;2.47;;;;;;;;;;4936094;29;20083;-72
2022/05/13 07:20:53;;;;;;;6.55;2.55;;;;;;;;;;4926535;29;20073;-72
2022/05/13 07:23:19;;;;;;;7.15;2.20;;;21.90;76.00;;;;;;4947376;29;20494;-72
2022/05/13 07:25:45;;;;;;;6.53;2.28;;;21.90;76.00;;;;;;4920437;29;20059;-71
2022/05/13 07:28:10;;;;;;;3.88;1.63;;;22.20;76.20;;;;;;4935282;29;20044;-62
2022/05/13 07:30:37;;;;;;;5.03;2.30;;;22.10;76.10;;;;;;4919837;29;20051;-72
2022/05/13 07:33:04;;;;;;;8.80;2.90;;;22.20;76.00;;;;;;4912164;29;20044;-71
2022/05/13 07:35:30;;;;;;;6.30;2.10;;;;;;;;;;4925603;29;20401;-70
2022/05/13 07:37:56;;;;;;;7.35;2.03;;;;;;;;;;4920669;28;20044;-66
2022/05/13 07:43:06;;;;;;;7.35;2.00;;;22.20;75.60;;;;;;4920766;29;20075;-63
2022/05/13 07:45:32;;;;;;;8.13;2.53;;;22.40;75.70;;;;;;4920832;29;20098;-71
2022/05/13 07:47:58;;;;;;;4.75;1.80;;;22.50;72.80;;;;;;4916982;29;20110;-71
2022/05/13 07:50:24;;;;;;;5.28;2.00;;;22.50;75.90;;;;;;4917780;29;20048;-72
2022/05/13 07:52:51;;;;;;;5.55;2.00;;;22.20;75.50;;;;;;4917387;29;20087;-72
2022/05/13 07:55:18;;;;;;;5.55;1.98;;;;;;;;;;4894453;29;20123;-71
2022/05/13 07:57:44;;;;;;;7.05;1.98;;;22.40;75.60;;;;;;4916849;29;20055;-71
2022/05/13 08:00:32;;;;;;;7.78;1.90;;;22.50;72.70;;;;;;4916548;29;20052;-71
2022/05/13 08:03:06;;;;;;;5.93;1.90;;;22.70;75.50;;;;;;4917283;29;20051;-71
2022/05/13 08:05:38;;;;;;;7.30;1.65;;;22.80;71.60;;;;;;4903368;29;20087;-74
2022/05/13 08:08:05;;;;;;;;;;;22.60;72.80;;;;;;4917063;29;20098;-75
2022/05/13 08:10:31;;;;;;;8.82;2.45;;;22.80;75.20;;;;;;4917786;29;20428;-74
2022/05/13 08:12:57;;;;;;;6.60;1.73;;;23.00;74.70;;;;;;4926030;29;20103;-73
2022/05/13 08:15:23;;;;;;;6.15;2.00;;;23.20;74.70;;;;;;4933491;29;20126;-65
2022/05/13 08:17:49;;;;;;;4.80;2.10;;;23.30;75.00;;;;;;4935058;29;20100;-62
2022/05/13 08:20:14;;;;;;;4.50;1.50;;;23.30;71.90;;;;;;4936397;29;20448;-75
2022/05/13 08:22:41;;;;;;;6.80;2.00;;;23.00;71.60;;;;;;4935033;29;20075;-72
2022/05/13 08:25:07;;;;;;;5.95;1.73;;;23.30;74.90;;;;;;4910680;29;20515;-74
2022/05/13 08:27:33;;;;;;;5.43;1.80;;;23.10;71.30;;;;;;4901337;29;20070;-74
2022/05/13 08:30:01;;;;;;;7.63;2.65;;;23.20;74.80;;;;;;4909546;29;20524;-72
2022/05/13 08:32:28;;;;;;;7.65;2.15;;;23.00;74.60;;;;;;4930359;29;20051;-63
2022/05/13 08:34:54;;;;;;;4.53;1.73;;;23.20;74.80;;;;;;4931736;29;20497;-64
2022/05/13 08:37:20;;;;;;;6.15;1.90;;;23.30;74.90;;;;;;4930058;29;20040;-62
2022/05/13 08:39:46;;;;;;;7.15;1.88;;;22.80;74.70;;;;;;4930983;29;20048;-62
2022/05/13 08:42:36;;;;;;;6.43;1.90;;;23.00;70.70;;;;;;4932171;29;20055;-62
2022/05/13 08:45:03;;;;;;;4.97;1.95;;;23.10;75.00;;;;;;4919290;29;20091;-74
2022/05/13 08:47:34;;;;;;;5.28;1.80;;;22.90;74.90;;;;;;4916193;29;20048;-64
2022/05/13 08:50:09;;;;;;;5.28;1.92;;;22.90;75.00;;;;;;4916276;29;20044;-63
2022/05/13 08:55:30;;;;;;;4.93;1.90;;;22.90;75.10;;;;;;4916953;29;20051;-62
2022/05/13 08:57:57;;;;;;;5.03;1.58;;;23.00;75.20;;;;;;4901135;29;20470;-74
2022/05/13 09:00:24;;;;;;;5.97;2.13;;;22.90;72.50;;;;;;4929718;29;20040;-74
2022/05/13 09:02:55;;;;;;;6.43;1.90;;;22.80;72.20;;;;;;4920572;29;20486;-74
2022/05/13 09:05:28;;;;;;;4.70;1.92;;;22.80;75.10;;;;;;4901234;29;20048;-74
2022/05/13 09:07:55;;;;;;;5.70;2.08;;;22.70;72.80;;;;;;4915748;29;20052;-73
2022/05/13 09:10:21;;;;;;;9.52;2.10;;;22.80;75.00;;;;;;4918109;29;20050;-72
2022/05/13 09:13:05;;;;;;;7.88;1.85;;;22.50;75.20;;;;;;4912114;29;20486;-69
2022/05/13 09:15:47;;;;;;;7.88;2.10;;;22.90;75.20;;;;;;4919261;29;20044;-72
2022/05/13 09:18:24;;;;;;;11.82;2.30;;;22.80;75.20;;;;;;4919368;29;20059;-72
2022/05/13 09:20:55;;;;;;;9.02;2.08;;;23.00;72.90;;;;;;4926372;29;20095;-73
2022/05/13 09:23:21;;;;;;;6.15;1.73;;;22.80;75.00;;;;;;4917988;29;20055;-73
2022/05/13 09:26:17;;;;;;;5.97;2.10;;;22.70;72.00;;;;;;4920618;29;20430;-72
2022/05/13 09:29:04;;;;;;;6.88;1.63;;;22.80;74.80;;;;;;4889749;29;20047;-73
2022/05/13 09:31:31;;;;;;;11.85;2.60;;;22.90;71.10;;;;;;4925711;29;20087;-73
2022/05/13 09:34:00;;;;;;;7.95;2.15;;;23.10;74.80;;;;;;4915123;29;20075;-72
2022/05/13 09:36:26;;;;;;;6.22;2.17;;;22.70;74.60;;;;;;4918295;29;20083;-73
2022/05/13 09:39:14;;;;;;;7.13;1.75;;;22.80;74.80;;;;;;4920385;29;20168;-72
2022/05/13 09:41:40;;;;;;;6.38;2.03;;;23.00;75.00;;;;;;4918868;29;20430;-72
2022/05/13 09:44:13;;;;;;;7.38;1.98;;;23.00;75.00;;;;;;4905634;29;20036;-73
2022/05/13 09:46:50;;;;;;;6.18;1.55;;;22.70;75.00;;;;;;4891985;29;20387;-72
2022/05/13 09:49:29;;;;;;;7.60;1.80;;;22.70;72.30;;;;;;4907948;29;20379;-73
2022/05/13 09:52:11;;;;;;;6.78;1.98;;;22.90;74.90;;;;;;4906237;29;20055;-72
2022/05/13 09:54:38;;;;;;;6.25;2.30;;;23.00;71.60;;;;;;4929893;28;20079;-73
2022/05/13 09:57:12;;;;;;;5.88;1.77;;;23.00;75.00;;;;;;4906413;29;20047;-72
2022/05/13 09:59:41;;;;;;;5.03;1.75;;;22.90;70.90;;;;;;4922794;29;20094;-73
2022/05/13 10:02:23;;;;;;;4.63;1.48;;;22.80;75.00;;;;;;4906022;29;20047;-72
2022/05/13 10:05:10;;;;;;;6.15;1.80;;;22.70;74.90;;;;;;4906475;28;20138;-62
2022/05/13 10:07:36;;;;;;;5.05;1.73;;;22.90;75.20;;;;;;4942813;29;20043;-63
2022/05/13 10:15:41;;;;;;;4.38;1.60;;;22.80;75.30;;;;;;4922490;29;20048;-72
2022/05/13 10:18:20;;;;;;;4.40;1.55;;;22.80;72.80;;;;;;4921757;29;20056;-72
2022/05/13 10:20:45;;;;;;;5.55;1.85;;;22.60;75.20;;;;;;4921757;28;20118;-73
2022/05/13 10:23:38;;;;;;;6.30;2.10;;;22.60;75.20;;;;;;4905892;29;20128;-72
2022/05/13 10:26:12;;;;;;;7.13;1.65;;;22.40;71.90;;;;;;4892539;28;20454;-71
2022/05/13 10:28:40;;;;;;;6.70;1.55;;;22.60;72.80;;;;;;4898404;29;20414;-71
2022/05/13 10:31:14;;;;;;;6.05;2.10;;;22.60;75.30;;;;;;4921140;29;20134;-70
2022/05/13 10:34:05;;;;;;;5.43;1.90;;;22.60;75.20;;;;;;4918439;29;20047;-70
2022/05/13 10:36:47;;;;;;;6.50;1.58;;;22.70;71.50;;;;;;4921344;29;20054;-70
2022/05/13 10:39:15;;;;;;;3.45;1.55;;;22.80;71.60;;;;;;4891241;29;20494;-70
2022/05/13 10:41:52;;;;;;;4.95;1.60;;;22.80;72.80;;;;;;4889959;29;20398;-71
2022/05/13 10:44:38;;;;;;;3.63;1.38;;;22.80;75.20;;;;;;4905047;28;20060;-69
2022/05/13 10:47:09;;;;;;;4.25;1.50;;;22.90;75.30;;;;;;4890177;29;20047;-70
2022/05/13 10:49:38;;;;;;;4.60;1.50;;;22.80;72.00;;;;;;4920266;29;20098;-71
2022/05/13 10:52:13;;;;;;;8.18;1.90;;;22.60;72.50;;;;;;4921718;29;20123;-71
2022/05/13 10:55:00;;;;;;;5.25;1.63;;;22.80;75.10;;;;;;4938013;29;20509;-70
2022/05/13 10:57:26;;;;;;;6.07;1.60;;;;;;;;;;4937821;29;20071;-71
2022/05/13 11:00:04;;;;;;;5.35;1.50;;;22.70;74.80;;;;;;4939217;29;20047;-72
2022/05/13 11:02:41;;;;;;;4.20;1.50;;;22.70;74.90;;;;;;4921169;29;20055;-71
2022/05/13 11:05:38;;;;;;;5.38;1.67;;;23.10;74.90;;;;;;4920776;29;20110;-71
2022/05/13 11:08:42;;;;;;;8.82;1.88;;;23.00;74.90;;;;;;4950199;29;20050;-71
2022/05/13 11:11:37;;;;;;;4.57;1.50;;;22.60;74.70;;;;;;4947706;29;20541;-71
2022/05/13 11:14:12;;;;;;;6.65;1.75;;;22.80;71.10;;;;;;4956537;29;20047;-71
2022/05/13 11:16:37;;;;;;;4.25;1.67;;;22.90;74.80;;;;;;4955073;29;20109;-71
2022/05/13 11:19:06;;;;;;;5.03;1.50;;;22.60;71.60;;;;;;4944498;29;20052;-71
2022/05/13 11:22:07;;;;;;;5.70;1.90;;;22.90;74.80;;;;;;4937229;29;20516;-71
2022/05/13 11:28:13;;;;;;;7.10;1.70;;;22.70;74.50;;;;;;4885027;29;20047;-71
2022/05/13 11:30:45;;;;;;;4.43;1.50;;;22.60;74.40;;;;;;4863091;29;20045;-71
2022/05/13 11:33:17;;;;;;;;;;;22.70;72.20;;;;;;4863789;29;20565;-70
2022/05/13 11:35:56;;;;;;;7.28;1.95;;;22.90;74.60;;;;;;4897471;29;19959;-71
2022/05/13 11:38:30;;;;;;;6.43;1.40;;;22.90;74.50;;;;;;4878984;29;20049;-71
2022/05/13 11:41:08;;;;;;;5.70;1.73;;;22.80;74.50;;;;;;4893690;29;20559;-71
2022/05/13 11:43:37;;;;;;;5.05;1.60;;;22.90;74.50;;;;;;4863112;29;20044;-71
2022/05/13 11:46:14;;;;;;;4.97;1.50;;;23.00;74.50;;;;;;4880298;29;20052;-71
2022/05/13 11:48:42;;;;;;;5.60;1.70;;;22.80;74.40;;;;;;4895620;29;20091;-64
2022/05/13 11:51:29;;;;;;;4.97;1.67;;;22.90;74.10;;;;;;4880151;29;20549;-74
2022/05/13 11:54:03;;;;;;;7.85;1.50;;;22.80;74.20;;;;;;4874299;29;20467;-75
2022/05/13 11:56:34;;;;;;;5.28;1.48;;;22.90;74.80;;;;;;4880874;29;20541;-75
2022/05/13 11:59:03;;;;;;;4.80;1.67;;;22.70;74.40;;;;;;4866573;29;20056;-74
2022/05/13 12:01:35;;;;;;;4.57;1.70;;;22.60;74.60;;;;;;4897278;29;20058;-75
2022/05/13 12:04:13;;;;;;;7.30;1.50;;;22.60;74.40;;;;;;4936810;28;20044;-74
2022/05/13 12:07:01;;;;;;;5.13;1.60;;;22.70;74.50;;;;;;4932280;29;20066;-76
2022/05/13 12:09:40;;;;;;;9.25;1.92;;;22.60;74.60;;;;;;4917892;29;20051;-74
2022/05/13 12:12:30;;;;;;;5.50;1.50;;;22.60;74.60;;;;;;4938506;29;20110;-73
2022/05/13 12:15:05;;;;;;;5.53;1.50;;;22.60;70.70;;;;;;4921446;29;20379;-74
2022/05/13 12:18:05;;;;;;;8.98;2.17;;;22.50;74.70;;;;;;4888445;29;20102;-63
2022/05/13 12:21:06;;;;;;;4.55;1.50;;;22.90;71.30;;;;;;4903724;29;20062;-63
2022/05/13 12:23:42;;;;;;;6.57;1.60;;;22.70;71.00;;;;;;4880759;29;20124;-63
2022/05/13 12:26:12;;;;;;;6.78;1.60;;;22.70;71.80;;;;;;4880155;29;20072;-63
2022/05/13 12:28:56;;;;;;;6.57;1.88;;;22.80;75.20;;;;;;4915124;29;20036;-63
2022/05/13 12:31:22;;;;;;;6.38;1.55;;;22.60;74.90;;;;;;4899746;29;20052;-63
2022/05/13 12:39:52;;;;;;;5.28;1.63;;;22.70;71.70;;;;;;4886522;29;20059;-65
2022/05/13 12:42:38;;;;;;;5.47;1.50;;;22.60;75.10;;;;;;4899647;29;20462;-64
2022/05/13 12:45:05;;;;;;;4.68;1.60;;;22.70;75.20;;;;;;4898938;29;20052;-74
2022/05/13 12:47:32;;;;;;;6.70;1.52;;;22.70;75.00;;;;;;4893277;29;20131;-74
2022/05/13 12:49:59;;;;;;;5.07;1.67;;;22.80;75.00;;;;;;4885783;29;20111;-74
2022/05/13 12:52:28;;;;;;;4.40;1.50;;;22.70;71.80;;;;;;4888362;29;20088;-63
2022/05/13 12:55:18;;;;;;;7.07;1.63;;;22.70;72.20;;;;;;4887672;29;20051;-72
2022/05/13 12:57:51;;;;;;;5.05;1.83;;;22.80;75.20;;;;;;4887567;29;20081;-73
2022/05/13 13:00:21;;;;;;;3.25;1.30;;;22.60;75.00;;;;;;4933647;29;20063;-74
2022/05/13 13:02:54;;;;;;;2.75;1.10;;;22.50;75.00;;;;;;4876655;29;20507;-73
2022/05/13 13:05:27;;;;;;;5.65;1.75;;;22.60;75.10;;;;;;4891869;29;20413;-72
2022/05/13 13:07:54;;;;;;;6.20;1.48;;;22.50;71.70;;;;;;4891511;29;20071;-70
2022/05/13 13:10:22;;;;;;;7.10;1.63;;;22.60;74.90;;;;;;4940342;29;20062;-73
2022/05/13 13:13:10;;;;;;;7.13;1.67;;;22.50;71.90;;;;;;4910367;29;20057;-73
2022/05/13 13:15:41;;;;;;;5.30;1.55;;;22.70;75.00;;;;;;4910078;29;20047;-73
2022/05/13 13:18:09;;;;;;;9.02;1.60;;;22.60;74.80;;;;;;4919149;29;20047;-73
2022/05/13 13:20:50;;;;;;;3.47;1.38;;;22.50;74.70;;;;;;4923487;29;20421;-64
2022/05/13 13:23:16;;;;;;;6.85;1.80;;;22.30;74.50;;;;;;4922392;29;20052;-73
2022/05/13 13:25:43;;;;;;;5.03;1.65;;;22.70;74.60;;;;;;4891097;29;20042;-73
2022/05/13 13:28:20;;;;;;;5.75;1.73;;;22.80;74.70;;;;;;4906679;29;20084;-74
2022/05/13 13:30:57;;;;;;;6.43;1.75;;;22.60;74.50;;;;;;4899831;29;20047;-73
2022/05/13 13:33:34;;;;;;;5.50;1.80;;;22.50;74.50;;;;;;4876241;29;20130;-73
2022/05/13 13:36:12;;;;;;;2.15;1.10;;;22.50;70.50;;;;;;4923134;28;20495;-73
2022/05/13 13:38:38;;;;;;;5.55;1.80;;;22.50;74.40;;;;;;4901608;29;20093;-63
2022/05/13 13:41:05;;;;;;;4.78;1.73;;;22.20;74.40;;;;;;4926110;29;20477;-64
2022/05/13 13:43:32;;;;;;;6.32;1.40;;;22.70;71.70;;;;;;4925507;29;20051;-65
2022/05/13 13:46:15;;;;;;;5.85;1.88;;;22.40;74.40;;;;;;4925247;29;20063;-63
2022/05/13 13:48:46;;;;;;;3.95;1.75;;;22.30;74.50;;;;;;4929659;29;20040;-64